Time;durP1;ratioP1;P1;durP2;ratioP2;P2;SDS_P1;SDS_P2;PMS_P1;PMS_P2;Temp;Humidity;BMP_temperature;BMP_pressure;BME280_temperature;BME280_humidity;BME280_pressure;Samples;Min_cycle;Max_cycle;Signal;HPM_P1;HPM_P2
2023/07/27 00:00:18;;;;;;;6.32;4.15;;;;;;;8.38;100.00;96110.00;2089790;28;20150;-61
2023/07/27 00:01:19;;;;;;;6.38;4.10;;;;;;;8.43;99.95;96125.41;2090695;28;20068;-60
2023/07/27 00:02:22;;;;;;;9.75;4.07;;;;;;;8.48;100.00;96118.31;2091509;28;20075;-61
2023/07/27 00:03:23;;;;;;;7.60;4.45;;;;;;;8.45;100.00;96120.19;2091503;28;20045;-61
2023/07/27 00:04:24;;;;;;;6.47;3.92;;;;;;;8.43;100.00;96116.81;2091559;28;20041;-61
2023/07/27 00:05:25;;;;;;;9.80;4.00;;;;;;;8.46;100.00;96114.09;2090997;28;20057;-61
2023/07/27 00:06:26;;;;;;;8.27;4.18;;;;;;;8.44;100.00;96110.72;2090953;28;20428;-61
2023/07/27 00:07:27;;;;;;;5.95;3.65;;;;;;;8.37;100.00;96108.31;2091431;28;20056;-60
2023/07/27 00:08:29;;;;;;;6.18;4.20;;;;;;;8.37;100.00;96107.50;2091206;28;20041;-60
2023/07/27 00:09:30;;;;;;;8.52;4.18;;;;;;;8.36;100.00;96113.53;2090976;28;20048;-61
2023/07/27 00:10:31;;;;;;;5.85;3.70;;;;;;;8.36;100.00;96111.78;2091340;28;20082;-60
2023/07/27 00:11:33;;;;;;;5.85;3.97;;;;;;;8.36;100.00;96108.38;2091365;28;20504;-61
2023/07/27 00:12:34;;;;;;;6.65;3.80;;;;;;;8.32;100.00;96115.41;2091289;28;20060;-61
2023/07/27 00:13:35;;;;;;;8.00;3.90;;;;;;;8.28;100.00;96107.81;2090963;28;20053;-61
2023/07/27 00:14:36;;;;;;;7.93;4.25;;;;;;;8.29;100.00;96106.94;2091136;28;20481;-61
2023/07/27 00:15:37;;;;;;;5.50;4.00;;;;;;;8.30;100.00;96103.44;2091455;28;20041;-61
2023/07/27 00:16:38;;;;;;;9.75;4.72;;;;;;;8.33;100.00;96103.31;2091720;28;20048;-61
2023/07/27 00:17:40;;;;;;;8.00;4.13;;;;;;;8.20;100.00;96082.22;2091822;28;20049;-60
2023/07/27 00:18:41;;;;;;;10.52;4.38;;;;;;;8.27;100.00;96099.22;2091838;28;20060;-61
2023/07/27 00:19:42;;;;;;;7.20;4.20;;;;;;;8.21;100.00;96096.84;2091038;28;20476;-61
2023/07/27 00:20:43;;;;;;;7.10;4.13;;;;;;;8.18;100.00;96095.22;2091219;28;20112;-61
2023/07/27 00:21:44;;;;;;;7.75;4.70;;;;;;;8.21;100.00;96093.44;2091463;28;20063;-61
2023/07/27 00:22:45;;;;;;;8.27;4.00;;;;;;;8.15;100.00;96095.34;2091398;28;20049;-60
2023/07/27 00:23:46;;;;;;;6.30;4.38;;;;;;;8.16;100.00;96096.19;2091566;28;20059;-61
2023/07/27 00:24:47;;;;;;;6.60;4.18;;;;;;;8.13;100.00;96104.88;2091693;28;20057;-61
2023/07/27 00:25:49;;;;;;;7.47;3.80;;;;;;;8.09;100.00;96098.13;2091211;28;20049;-60
2023/07/27 00:26:50;;;;;;;8.52;4.38;;;;;;;8.08;100.00;96101.63;2091121;28;20045;-60
2023/07/27 00:27:51;;;;;;;7.10;4.22;;;;;;;8.07;100.00;96096.50;2091365;28;20057;-61
2023/07/27 00:28:52;;;;;;;13.63;4.95;;;;;;;8.03;100.00;96106.09;2090422;28;20497;-60
2023/07/27 00:29:53;;;;;;;6.20;4.10;;;;;;;8.04;100.00;96102.63;2090185;28;20099;-60
2023/07/27 00:30:54;;;;;;;7.10;4.57;;;;;;;8.00;100.00;96098.47;2090688;28;20052;-60
2023/07/27 00:31:55;;;;;;;6.05;4.47;;;;;;;8.03;100.00;96103.53;2090857;28;20088;-61
2023/07/27 00:32:57;;;;;;;8.27;4.53;;;;;;;8.06;100.00;96105.16;2090814;28;20064;-60
2023/07/27 00:33:58;;;;;;;6.53;4.55;;;;;;;7.93;100.00;96081.47;2090216;28;20057;-60
2023/07/27 00:34:59;;;;;;;5.93;4.05;;;;;;;8.01;100.00;96105.31;2090480;28;20056;-60
2023/07/27 00:36:01;;;;;;;5.63;3.78;;;;;;;7.94;100.00;96091.78;2090895;28;20400;-60
2023/07/27 00:37:02;;;;;;;8.52;4.97;;;;;;;8.00;100.00;96101.03;2090793;28;20057;-60
2023/07/27 00:38:04;;;;;;;6.55;4.68;;;;;;;7.99;100.00;96099.34;2090630;28;20099;-60
2023/07/27 00:39:05;;;;;;;6.82;4.70;;;;;;;7.98;100.00;96105.41;2090364;28;20096;-60
2023/07/27 00:40:06;;;;;;;11.23;4.40;;;;;;;7.96;100.00;96096.88;2090388;28;20412;-60
2023/07/27 00:41:08;;;;;;;5.97;4.50;;;;;;;8.00;100.00;96101.03;2091063;28;20071;-60
2023/07/27 00:42:09;;;;;;;8.30;4.90;;;;;;;8.04;100.00;96101.78;2090773;28;20064;-60
2023/07/27 00:43:10;;;;;;;6.60;4.20;;;;;;;8.02;100.00;96104.44;2090730;28;20404;-61
2023/07/27 00:44:11;;;;;;;11.52;4.80;;;;;;;8.04;100.00;96100.03;2090064;28;20056;-60
2023/07/27 00:45:13;;;;;;;8.82;4.50;;;;;;;7.91;100.00;96088.44;2082547;28;20068;-60
2023/07/27 00:46:14;;;;;;;5.72;4.07;;;;;;;7.99;100.00;96096.75;2082378;28;20049;-60
2023/07/27 00:47:15;;;;;;;7.43;5.13;;;;;;;7.92;100.00;96097.88;2082187;28;20045;-60
2023/07/27 00:48:17;;;;;;;6.65;4.30;;;;;;;8.01;100.00;96110.47;2082113;28;20041;-60
2023/07/27 00:49:19;;;;;;;7.00;4.60;;;;;;;8.05;100.00;96104.31;2082275;28;20053;-60
2023/07/27 00:50:20;;;;;;;8.52;4.40;;;;;;;8.03;100.00;96100.09;2081482;28;20054;-59
2023/07/27 00:51:21;;;;;;;6.68;4.55;;;;;;;7.98;100.00;96102.84;2090060;28;20057;-61
2023/07/27 00:52:22;;;;;;;8.05;4.50;;;;;;;7.97;100.00;96100.31;2090655;28;20412;-60
2023/07/27 00:53:23;;;;;;;6.90;4.35;;;;;;;7.92;100.00;96092.72;2090978;28;20045;-60
2023/07/27 00:54:24;;;;;;;8.15;4.10;;;;;;;7.92;100.00;96096.13;2090011;28;20052;-60
2023/07/27 00:55:25;;;;;;;9.43;4.82;;;;;;;7.88;100.00;96096.28;2082072;28;20523;-61
2023/07/27 00:56:27;;;;;;;7.50;4.22;;;;;;;7.88;100.00;96098.88;2090062;28;20049;-60
2023/07/27 00:57:28;;;;;;;8.85;4.85;;;;;;;7.98;100.00;96096.81;2090718;28;20061;-60
2023/07/27 00:58:29;;;;;;;10.82;4.35;;;;;;;7.98;100.00;96095.09;2090887;28;20057;-60
2023/07/27 00:59:30;;;;;;;6.47;4.05;;;;;;;7.91;100.00;96097.06;2090615;28;20064;-60
2023/07/27 01:00:31;;;;;;;8.05;4.47;;;;;;;7.88;100.00;96093.72;2090901;28;20045;-61
2023/07/27 01:01:32;;;;;;;12.30;4.30;;;;;;;7.91;100.00;96096.19;2082113;28;20048;-61
2023/07/27 01:02:33;;;;;;;7.93;4.28;;;;;;;7.90;100.00;96103.09;2082256;28;20076;-61
2023/07/27 01:03:35;;;;;;;8.18;4.72;;;;;;;7.89;100.00;96090.25;2090798;28;20048;-60
2023/07/27 01:04:36;;;;;;;8.25;4.63;;;;;;;7.87;100.00;96090.28;2081955;28;20060;-60
2023/07/27 01:05:37;;;;;;;6.40;4.43;;;;;;;7.78;100.00;96080.28;2082311;28;20060;-61
2023/07/27 01:06:39;;;;;;;7.28;4.30;;;;;;;7.83;100.00;96096.47;2090928;28;20048;-61
2023/07/27 01:07:40;;;;;;;8.40;4.60;;;;;;;7.80;100.00;96095.72;2081979;28;20068;-61
2023/07/27 01:08:41;;;;;;;7.45;4.20;;;;;;;7.81;100.00;96094.84;2081987;28;20061;-61
2023/07/27 01:09:42;;;;;;;8.55;4.80;;;;;;;7.78;100.00;96090.63;2090812;28;20060;-61
2023/07/27 01:10:54;;;;;;;6.53;4.70;;;;;;;7.80;100.00;96090.56;2090484;28;20041;-60
2023/07/27 01:12:12;;;;;;;9.85;4.90;;;;;;;7.74;100.00;96087.28;2090116;28;20037;-61
2023/07/27 01:13:24;;;;;;;7.13;4.60;;;;;;;7.63;100.00;96070.47;2082059;28;20084;-60
2023/07/27 01:14:44;;;;;;;7.22;4.20;;;;;;;7.71;100.00;96092.56;2083938;28;20468;-61
2023/07/27 01:15:48;;;;;;;9.10;4.72;;;;;;;7.68;100.00;96084.06;2084232;28;20053;-61
2023/07/27 01:16:54;;;;;;;9.32;4.63;;;;;;;7.60;100.00;96065.41;2081987;28;20425;-60
2023/07/27 01:17:59;;;;;;;5.88;4.68;;;;;;;7.68;100.00;96078.91;2074900;28;20064;-61
2023/07/27 01:19:30;;;;;;;10.35;5.00;;;;;;;7.68;100.00;96082.31;2067107;28;20386;-60
2023/07/27 01:20:34;;;;;;;7.65;4.95;;;;;;;7.65;100.00;96079.00;2087150;28;20449;-61
2023/07/27 01:21:36;;;;;;;8.45;4.55;;;;;;;7.65;100.00;96084.19;2090867;28;20041;-60
2023/07/27 01:23:00;;;;;;;7.05;4.18;;;;;;;7.65;100.00;96077.28;2089977;28;20436;-60
2023/07/27 01:24:13;;;;;;;7.25;4.50;;;;;;;7.61;100.00;96072.25;2090377;28;20076;-60
2023/07/27 01:25:37;;;;;;;7.28;4.68;;;;;;;7.62;100.00;96079.97;2090315;28;20045;-60
2023/07/27 01:27:28;;;;;;;9.82;4.75;;;;;;;7.47;100.00;96055.47;2090111;28;20040;-60
2023/07/27 01:28:57;;;;;;;6.53;4.35;;;;;;;7.53;100.00;96069.09;2065174;28;20379;-62
2023/07/27 01:30:35;;;;;;;5.63;4.07;;;;;;;7.52;100.00;96068.25;2077750;28;20440;-60
2023/07/27 01:31:41;;;;;;;8.18;4.32;;;;;;;7.51;100.00;96072.56;2087062;28;20053;-60
2023/07/27 01:32:43;;;;;;;7.57;4.32;;;;;;;7.44;100.00;96049.56;2082538;28;20056;-60
2023/07/27 01:33:46;;;;;;;9.77;3.85;;;;;;;7.56;100.00;96064.63;2073826;28;20057;-61
2023/07/27 01:34:49;;;;;;;9.75;4.53;;;;;;;7.45;100.00;96049.50;2066061;28;20061;-60
2023/07/27 01:36:00;;;;;;;6.15;4.40;;;;;;;7.50;100.00;96068.28;2073819;28;20054;-60
2023/07/27 01:37:02;;;;;;;9.88;4.70;;;;;;;7.42;100.00;96052.19;2076208;28;20046;-60
2023/07/27 01:38:03;;;;;;;9.57;4.68;;;;;;;7.49;100.00;96058.84;2089406;28;20056;-60
2023/07/27 01:39:06;;;;;;;7.47;4.13;;;;;;;7.44;100.00;96045.25;2089961;28;20056;-61
2023/07/27 01:40:08;;;;;;;8.63;4.07;;;;;;;7.32;100.00;96029.31;2082103;28;20049;-61
2023/07/27 01:41:10;;;;;;;6.55;4.05;;;;;;;7.54;100.00;96063.00;2082181;28;20050;-60
2023/07/27 01:42:13;;;;;;;6.03;4.07;;;;;;;7.53;100.00;96059.59;2074306;28;20053;-60
2023/07/27 01:43:14;;;;;;;7.72;3.85;;;;;;;7.47;100.00;96047.72;2082093;28;20048;-61
2023/07/27 01:44:15;;;;;;;10.02;4.10;;;;;;;7.53;100.00;96051.81;2082017;28;20057;-60
2023/07/27 01:45:16;;;;;;;5.00;3.65;;;;;;;7.60;100.00;96055.06;2073549;28;20400;-60
2023/07/27 01:46:17;;;;;;;7.68;3.88;;;;;;;7.48;100.00;96033.94;2065420;28;20126;-60
2023/07/27 01:47:18;;;;;;;5.28;3.80;;;;;;;7.46;100.00;96045.22;2065694;28;20065;-60
2023/07/27 01:48:19;;;;;;;8.82;3.92;;;;;;;7.53;100.00;96057.00;2081717;28;20054;-60
2023/07/27 01:49:21;;;;;;;7.63;4.35;;;;;;;7.45;100.00;96044.34;2073826;28;20120;-60
2023/07/27 01:50:22;;;;;;;6.65;4.50;;;;;;;7.54;100.00;96055.25;2057609;28;20050;-60
2023/07/27 01:51:24;;;;;;;6.25;4.13;;;;;;;7.44;100.00;96044.41;2073652;28;20046;-60
2023/07/27 01:52:25;;;;;;;9.40;4.32;;;;;;;7.51;100.00;96056.19;2082289;28;20053;-60
2023/07/27 01:53:26;;;;;;;6.93;4.50;;;;;;;7.38;100.00;96036.88;2072849;28;20054;-60
2023/07/27 01:54:27;;;;;;;7.53;3.70;;;;;;;7.51;100.00;96051.03;2081388;28;20481;-60
2023/07/27 01:55:29;;;;;;;7.95;4.30;;;;;;;7.53;100.00;96053.56;2081641;28;20075;-60
2023/07/27 01:56:30;;;;;;;5.88;3.40;;;;;;;7.56;100.00;96061.22;2081685;28;20045;-60
2023/07/27 01:57:31;;;;;;;6.60;4.25;;;;;;;7.41;100.00;96045.34;2073157;28;20061;-60
2023/07/27 01:58:35;;;;;;;7.45;3.83;;;;;;;7.61;100.00;96061.91;2073601;28;20042;-60
2023/07/27 01:59:36;;;;;;;8.25;4.00;;;;;;;7.59;100.00;96056.81;2073678;28;20046;-60
2023/07/27 02:00:37;;;;;;;6.85;3.95;;;;;;;7.61;100.00;96061.91;2081762;28;20044;-60
2023/07/27 02:01:42;;;;;;;7.78;3.72;;;;;;;7.62;100.00;96054.13;2081978;28;20050;-60
2023/07/27 02:02:43;;;;;;;6.95;4.03;;;;;;;7.49;100.00;96039.94;2089645;28;20053;-60
2023/07/27 02:03:46;;;;;;;8.60;3.95;;;;;;;7.56;100.00;96051.72;2081798;28;20104;-60
2023/07/27 02:04:48;;;;;;;6.03;3.40;;;;;;;7.53;100.00;96053.56;2065702;28;20537;-60
2023/07/27 02:05:49;;;;;;;8.52;4.30;;;;;;;7.44;100.00;96034.91;2073509;28;20061;-60
2023/07/27 02:06:52;;;;;;;8.23;4.00;;;;;;;7.51;100.00;96051.03;2089744;28;20053;-60
2023/07/27 02:07:53;;;;;;;7.70;4.03;;;;;;;7.50;100.00;96049.34;2090250;28;20049;-60
2023/07/27 02:08:54;;;;;;;7.93;3.45;;;;;;;7.54;100.00;96045.78;2081806;28;20425;-60
2023/07/27 02:09:55;;;;;;;7.65;3.03;;;;;;;7.54;100.00;96050.09;2089613;28;20052;-60
2023/07/27 02:11:06;;;;;;;7.68;3.55;;;;;;;7.53;100.00;96041.50;2089553;28;20045;-60
2023/07/27 02:12:11;;;;;;;9.10;3.70;;;;;;;7.51;100.00;96044.16;2089621;28;20060;-60
2023/07/27 02:13:20;;;;;;;7.90;3.53;;;;;;;7.49;100.00;96051.09;2073444;28;20057;-60
2023/07/27 02:14:34;;;;;;;6.22;3.75;;;;;;;7.49;100.00;96045.09;2067876;28;20486;-60
2023/07/27 02:15:42;;;;;;;7.05;3.60;;;;;;;7.46;100.00;96040.88;2069289;28;20038;-60
2023/07/27 02:16:45;;;;;;;6.40;3.88;;;;;;;7.42;100.00;96046.19;2075558;28;20046;-61
2023/07/27 02:17:48;;;;;;;4.68;3.00;;;;;;;7.40;100.00;96037.63;2073432;28;20525;-60
2023/07/27 02:18:49;;;;;;;9.57;3.80;;;;;;;7.40;100.00;96032.47;2065926;28;20062;-60
2023/07/27 02:19:54;;;;;;;5.95;3.95;;;;;;;7.28;100.00;96026.84;2065104;28;20068;-61
2023/07/27 02:20:55;;;;;;;5.97;3.78;;;;;;;7.34;100.00;96027.53;2066065;28;20422;-60
2023/07/27 02:21:56;;;;;;;7.50;4.20;;;;;;;7.42;100.00;96036.69;2082474;28;20065;-60
2023/07/27 02:22:58;;;;;;;8.38;3.72;;;;;;;7.40;100.00;96038.47;2089857;28;20057;-60
2023/07/27 02:23:59;;;;;;;7.90;3.97;;;;;;;7.42;100.00;96038.44;2073337;28;20109;-60
2023/07/27 02:25:01;;;;;;;6.38;4.00;;;;;;;7.40;100.00;96038.47;2064887;28;20054;-60
2023/07/27 02:26:02;;;;;;;6.63;4.15;;;;;;;7.38;100.00;96029.97;2072680;28;20054;-60
2023/07/27 02:27:04;;;;;;;7.43;3.70;;;;;;;7.34;100.00;96023.19;2073242;28;20429;-61
2023/07/27 02:28:05;;;;;;;6.18;4.00;;;;;;;7.44;100.00;96034.91;2081596;28;20082;-60
2023/07/27 02:29:06;;;;;;;6.10;3.70;;;;;;;7.40;100.00;96037.63;2081051;28;20060;-60
2023/07/27 02:30:07;;;;;;;5.07;3.60;;;;;;;7.39;100.00;96033.38;2081909;28;20049;-60
2023/07/27 02:31:08;;;;;;;6.68;3.75;;;;;;;7.48;100.00;96030.47;2081302;28;20058;-60
2023/07/27 02:32:09;;;;;;;4.80;3.50;;;;;;;7.49;100.00;96029.59;2081299;28;20632;-61
2023/07/27 02:33:10;;;;;;;8.43;3.60;;;;;;;7.45;100.00;96025.41;2081320;28;20057;-60
2023/07/27 02:34:11;;;;;;;5.80;3.58;;;;;;;7.45;100.00;96030.56;2089556;28;20045;-60
2023/07/27 02:35:13;;;;;;;6.25;4.50;;;;;;;7.35;100.00;96016.28;2089871;28;20056;-60
2023/07/27 02:36:15;;;;;;;6.55;4.15;;;;;;;7.33;100.00;96015.50;2088828;28;20428;-60
2023/07/27 02:37:16;;;;;;;6.22;3.67;;;;;;;7.38;100.00;96026.53;2081216;28;20053;-60
2023/07/27 02:38:17;;;;;;;7.82;4.00;;;;;;;7.37;100.00;96023.09;2081503;28;20057;-60
2023/07/27 02:39:18;;;;;;;9.05;4.20;;;;;;;7.36;100.00;96026.56;2089659;28;20049;-62
2023/07/27 02:40:19;;;;;;;6.20;3.25;;;;;;;7.36;100.00;96029.16;2081644;28;20054;-60
2023/07/27 02:41:20;;;;;;;9.45;4.00;;;;;;;7.39;100.00;96026.47;2089506;28;20412;-60
2023/07/27 02:42:22;;;;;;;6.25;4.00;;;;;;;7.39;100.00;96023.03;2089259;28;20049;-60
2023/07/27 02:43:23;;;;;;;7.18;3.85;;;;;;;7.38;100.00;96022.22;2080903;28;20053;-61
2023/07/27 02:44:24;;;;;;;6.78;3.80;;;;;;;7.39;100.00;96021.31;2081225;28;20064;-60
2023/07/27 02:45:25;;;;;;;6.90;3.70;;;;;;;7.42;100.00;96025.53;2089643;28;20051;-60
2023/07/27 02:46:27;;;;;;;5.72;3.35;;;;;;;7.44;100.00;96026.31;2089416;28;20053;-60
2023/07/27 02:47:28;;;;;;;6.40;3.65;;;;;;;7.44;100.00;96015.97;2089541;28;20524;-60
2023/07/27 02:48:29;;;;;;;6.60;3.95;;;;;;;7.38;100.00;96003.28;2090229;28;20045;-60
2023/07/27 02:49:30;;;;;;;7.47;3.67;;;;;;;7.51;100.00;96020.91;2088830;28;20052;-60
2023/07/27 02:50:32;;;;;;;8.90;4.03;;;;;;;7.55;100.00;96019.03;2081499;28;20445;-61
2023/07/27 02:51:38;;;;;;;7.45;4.72;;;;;;;7.60;100.00;96022.31;2082258;28;20048;-60
2023/07/27 02:52:43;;;;;;;6.72;4.05;;;;;;;7.52;100.00;96003.63;2081293;28;20440;-60
2023/07/27 02:53:44;;;;;;;6.57;4.13;;;;;;;7.53;100.00;96005.31;2089740;28;20041;-60
2023/07/27 02:54:55;;;;;;;6.25;3.85;;;;;;;7.64;100.00;96026.44;2082819;28;20101;-60
2023/07/27 02:55:57;;;;;;;7.60;3.47;;;;;;;7.66;100.00;96024.66;2081159;28;20057;-61
2023/07/27 02:56:59;;;;;;;6.68;4.00;;;;;;;7.67;100.00;96025.50;2081892;28;20505;-60
2023/07/27 02:58:07;;;;;;;5.35;3.15;;;;;;;7.67;100.00;96028.09;2082743;28;20064;-60
2023/07/27 02:59:09;;;;;;;10.00;4.32;;;;;;;7.67;100.00;96028.09;2081381;28;20252;-60
2023/07/27 03:00:16;;;;;;;4.65;3.33;;;;;;;7.68;100.00;96022.88;2081693;28;20156;-60
2023/07/27 03:01:20;;;;;;;8.90;3.28;;;;;;;7.70;100.00;96023.66;2089419;28;20093;-60
2023/07/27 03:02:27;;;;;;;7.63;3.67;;;;;;;7.70;100.00;96021.09;2082007;28;20053;-60
2023/07/27 03:03:30;;;;;;;6.95;3.80;;;;;;;7.66;100.00;96019.50;2081630;28;20061;-60
2023/07/27 03:04:41;;;;;;;6.50;3.42;;;;;;;7.68;100.00;96022.88;2082621;28;20034;-60
2023/07/27 03:05:44;;;;;;;8.25;3.67;;;;;;;7.68;100.00;96020.28;2081420;28;20512;-60
2023/07/27 03:06:48;;;;;;;7.03;3.40;;;;;;;7.70;100.00;96021.09;2080484;28;20435;-59
2023/07/27 03:07:51;;;;;;;4.95;3.40;;;;;;;7.71;100.00;96021.94;2081778;28;20049;-60
2023/07/27 03:08:52;;;;;;;4.95;3.08;;;;;;;7.69;100.00;96010.78;2081006;28;20049;-60
2023/07/27 03:09:54;;;;;;;4.57;3.00;;;;;;;7.55;100.00;95995.78;2081227;28;20541;-60
2023/07/27 03:10:59;;;;;;;8.73;3.30;;;;;;;7.62;100.00;96006.75;2081562;28;20060;-60
2023/07/27 03:12:02;;;;;;;7.70;4.20;;;;;;;7.64;100.00;96012.69;2089499;28;20048;-60
2023/07/27 03:13:03;;;;;;;7.15;3.20;;;;;;;7.61;100.00;96015.38;2089965;28;20059;-59
2023/07/27 03:14:05;;;;;;;6.65;3.72;;;;;;;7.62;100.00;96010.19;2090077;28;20419;-60
2023/07/27 03:15:06;;;;;;;7.93;3.85;;;;;;;7.63;100.00;96019.59;2089651;28;20064;-60
2023/07/27 03:16:07;;;;;;;5.75;3.33;;;;;;;7.58;100.00;96012.91;2089119;28;20045;-60
2023/07/27 03:17:08;;;;;;;6.80;3.10;;;;;;;7.56;100.00;96015.53;2080783;28;20331;-60
2023/07/27 03:18:09;;;;;;;10.43;3.83;;;;;;;7.58;100.00;96015.50;2088921;28;20057;-60
2023/07/27 03:19:10;;;;;;;4.15;3.20;;;;;;;7.53;100.00;96007.91;2089770;28;20064;-60
2023/07/27 03:20:11;;;;;;;5.18;3.40;;;;;;;7.56;100.00;96012.97;2080952;28;20440;-60
2023/07/27 03:21:13;;;;;;;4.70;3.25;;;;;;;7.60;100.00;96017.13;2089167;28;20064;-60
2023/07/27 03:22:14;;;;;;;5.78;3.50;;;;;;;7.60;100.00;96017.13;2089686;28;20060;-60
2023/07/27 03:23:15;;;;;;;7.63;3.47;;;;;;;7.62;100.00;96011.94;2089293;28;20049;-60
2023/07/27 03:24:17;;;;;;;7.53;3.58;;;;;;;7.62;100.00;96007.59;2089238;28;20056;-60
2023/07/27 03:25:18;;;;;;;5.40;3.40;;;;;;;7.64;99.98;96004.94;2089150;28;20044;-60
2023/07/27 03:26:19;;;;;;;5.75;3.10;;;;;;;7.63;100.00;96000.69;2089423;28;20045;-59
2023/07/27 03:27:20;;;;;;;6.75;3.53;;;;;;;7.64;99.91;96004.94;2090349;28;20061;-60
2023/07/27 03:28:21;;;;;;;6.53;3.28;;;;;;;7.62;100.00;96007.59;2089687;28;20076;-60
2023/07/27 03:29:22;;;;;;;5.85;3.63;;;;;;;7.63;100.00;96013.59;2089941;28;20060;-60
2023/07/27 03:30:23;;;;;;;5.38;3.22;;;;;;;7.62;100.00;96006.75;2089643;28;20040;-60
2023/07/27 03:31:26;;;;;;;6.15;3.70;;;;;;;7.55;100.00;95993.19;2089192;28;20064;-60
2023/07/27 03:32:28;;;;;;;7.13;3.45;;;;;;;7.66;100.00;96010.91;2089225;28;20045;-59
2023/07/27 03:33:29;;;;;;;8.05;3.85;;;;;;;7.58;100.00;96002.56;2089344;28;20481;-60
2023/07/27 03:34:30;;;;;;;5.57;3.70;;;;;;;7.55;100.00;95997.53;2090004;28;20060;-60
2023/07/27 03:35:32;;;;;;;7.80;4.03;;;;;;;7.59;99.99;96007.72;2089869;28;20097;-60
2023/07/27 03:36:33;;;;;;;7.35;3.50;;;;;;;7.58;99.52;96005.16;2091440;28;20041;-60
2023/07/27 03:37:34;;;;;;;9.50;3.50;;;;;;;7.55;99.90;95997.53;2091481;28;20057;-60
2023/07/27 03:38:35;;;;;;;6.57;3.47;;;;;;;7.51;99.82;95996.75;2091857;28;20041;-60
2023/07/27 03:39:36;;;;;;;6.45;3.70;;;;;;;7.56;99.31;95997.44;2091514;28;20047;-60
2023/07/27 03:40:38;;;;;;;8.05;3.75;;;;;;;7.57;98.82;96003.50;2090568;28;20044;-60
2023/07/27 03:41:39;;;;;;;7.13;3.70;;;;;;;7.57;99.14;95996.56;2090855;28;20145;-60
2023/07/27 03:42:41;;;;;;;5.47;3.78;;;;;;;7.47;99.39;95982.28;2090878;28;20061;-60
2023/07/27 03:43:42;;;;;;;8.85;3.85;;;;;;;7.54;99.64;95995.81;2091469;28;20049;-60
2023/07/27 03:44:43;;;;;;;6.68;4.20;;;;;;;7.48;99.40;95992.59;2090789;28;20045;-60
2023/07/27 03:45:45;;;;;;;5.22;3.70;;;;;;;7.50;99.41;95997.69;2091477;28;20099;-60
2023/07/27 03:46:46;;;;;;;7.30;3.33;;;;;;;7.49;99.69;95996.84;2091280;28;20052;-60
2023/07/27 03:47:47;;;;;;;6.82;3.85;;;;;;;7.46;99.44;95996.94;2082803;28;20053;-60
2023/07/27 03:48:49;;;;;;;7.53;3.80;;;;;;;7.45;99.36;95995.25;2090917;28;20053;-60
2023/07/27 03:49:50;;;;;;;7.95;3.97;;;;;;;7.35;99.15;95977.53;2090324;28;20053;-60
2023/07/27 03:50:52;;;;;;;6.95;4.03;;;;;;;7.34;99.68;95978.44;2090952;28;20374;-60
2023/07/27 03:51:54;;;;;;;6.65;3.88;;;;;;;7.41;99.49;95993.69;2090718;28;20048;-60
2023/07/27 03:52:56;;;;;;;8.48;3.60;;;;;;;7.39;99.57;95990.28;2090237;28;20053;-60
2023/07/27 03:53:57;;;;;;;7.32;3.90;;;;;;;7.38;99.44;95993.78;2091080;28;20049;-60
2023/07/27 03:55:11;;;;;;;6.53;3.60;;;;;;;7.41;99.96;95985.09;2084237;28;20129;-60
2023/07/27 03:56:13;;;;;;;6.63;3.58;;;;;;;7.41;99.74;95982.50;2090471;28;20435;-60
2023/07/27 03:57:14;;;;;;;10.95;4.10;;;;;;;7.43;99.06;95985.84;2082823;28;20065;-60
2023/07/27 03:58:15;;;;;;;7.38;3.95;;;;;;;7.45;99.80;95986.66;2090753;28;20052;-60
2023/07/27 03:59:16;;;;;;;5.38;3.80;;;;;;;7.41;99.59;95975.59;2090870;28;20049;-60
2023/07/27 04:00:17;;;;;;;6.95;3.88;;;;;;;7.34;99.69;95974.09;2082626;28;20485;-60
2023/07/27 04:01:19;;;;;;;6.32;4.00;;;;;;;7.41;99.99;95978.19;2090737;28;20049;-59
2023/07/27 04:02:21;;;;;;;6.80;3.65;;;;;;;7.42;100.00;95977.28;2091372;28;20501;-59
2023/07/27 04:03:22;;;;;;;7.70;3.85;;;;;;;7.40;100.00;95970.47;2091347;28;20067;-60
2023/07/27 04:04:23;;;;;;;6.57;3.72;;;;;;;7.43;99.93;95975.53;2091226;28;20048;-60
2023/07/27 04:05:25;;;;;;;7.82;4.05;;;;;;;7.41;99.90;95978.19;2090781;28;20053;-60
2023/07/27 04:06:27;;;;;;;5.40;3.60;;;;;;;7.44;99.71;95972.91;2090655;28;20053;-60
2023/07/27 04:07:28;;;;;;;5.68;3.70;;;;;;;7.48;100.00;95981.38;2090896;28;20053;-60
2023/07/27 04:08:29;;;;;;;5.93;3.70;;;;;;;7.49;100.00;95985.66;2090649;28;20049;-60
2023/07/27 04:09:30;;;;;;;6.22;3.90;;;;;;;7.42;99.38;95973.84;2082695;28;20059;-60
2023/07/27 04:10:32;;;;;;;8.18;4.20;;;;;;;7.49;100.00;95983.91;2090700;28;20044;-60
2023/07/27 04:11:33;;;;;;;5.32;3.28;;;;;;;7.49;99.93;95983.91;2090889;28;20045;-60
2023/07/27 04:12:35;;;;;;;8.35;4.38;;;;;;;7.49;99.83;95985.66;2090936;28;20045;-60
2023/07/27 04:13:37;;;;;;;5.80;3.70;;;;;;;7.49;99.66;95989.09;2091252;28;20397;-60
2023/07/27 04:14:38;;;;;;;5.88;3.90;;;;;;;7.52;100.00;95993.31;2091207;28;20074;-60
2023/07/27 04:15:39;;;;;;;5.93;4.13;;;;;;;7.51;99.82;95983.84;2091281;28;20049;-60
2023/07/27 04:16:41;;;;;;;5.95;3.97;;;;;;;7.55;100.00;95985.44;2081740;28;20049;-60
2023/07/27 04:17:42;;;;;;;6.63;3.90;;;;;;;7.58;100.00;95989.66;2082561;28;20049;-60
2023/07/27 04:18:43;;;;;;;7.95;3.80;;;;;;;7.62;100.00;95986.09;2091350;28;20389;-60
2023/07/27 04:19:44;;;;;;;8.35;4.18;;;;;;;7.64;100.00;95990.25;2091140;28;20036;-60
2023/07/27 04:20:45;;;;;;;6.07;3.55;;;;;;;7.64;100.00;95982.50;2091267;28;20056;-60
2023/07/27 04:21:46;;;;;;;7.10;3.78;;;;;;;7.71;100.00;95986.56;2091352;28;20393;-60
2023/07/27 04:22:47;;;;;;;5.97;3.50;;;;;;;7.76;100.00;95978.66;2091174;28;20048;-60
2023/07/27 04:23:48;;;;;;;8.40;4.18;;;;;;;7.72;100.00;95965.00;2090230;28;20057;-60
2023/07/27 04:24:50;;;;;;;7.03;4.13;;;;;;;7.82;100.00;95973.25;2090551;28;20488;-60
2023/07/27 04:25:51;;;;;;;5.32;3.63;;;;;;;7.78;100.00;95965.66;2091700;28;20064;-60
2023/07/27 04:26:52;;;;;;;8.65;4.05;;;;;;;7.94;100.00;95984.91;2090790;28;20040;-60
2023/07/27 04:27:53;;;;;;;7.25;3.90;;;;;;;7.99;99.91;95979.53;2090573;28;20052;-60
2023/07/27 04:28:54;;;;;;;5.50;3.40;;;;;;;8.01;100.00;95986.34;2091132;28;20056;-60
2023/07/27 04:29:55;;;;;;;6.10;3.80;;;;;;;8.06;100.00;95981.84;2090517;28;20056;-60
2023/07/27 04:30:56;;;;;;;5.32;3.67;;;;;;;8.03;100.00;95981.97;2090513;28;20056;-60
2023/07/27 04:31:57;;;;;;;6.80;3.65;;;;;;;8.08;99.07;95985.22;2090175;28;20095;-60
2023/07/27 04:32:58;;;;;;;5.07;3.30;;;;;;;8.07;98.46;95983.56;2082264;28;20056;-60
2023/07/27 04:33:59;;;;;;;6.47;3.65;;;;;;;8.08;98.15;95985.22;2082477;28;20052;-60
2023/07/27 04:35:01;;;;;;;6.43;3.90;;;;;;;8.14;98.35;95984.16;2090231;28;20536;-60
2023/07/27 04:36:02;;;;;;;9.85;4.25;;;;;;;8.11;98.04;95979.94;2090217;28;20049;-60
2023/07/27 04:37:03;;;;;;;5.55;3.53;;;;;;;8.16;98.27;95979.78;2082132;28;20057;-60
2023/07/27 04:38:04;;;;;;;8.65;3.50;;;;;;;8.23;98.35;95980.38;2090304;28;20409;-60
2023/07/27 04:39:05;;;;;;;8.05;4.35;;;;;;;8.23;97.56;95980.38;2090882;28;20041;-60
2023/07/27 04:40:07;;;;;;;8.70;3.70;;;;;;;8.30;97.42;95979.25;2091182;28;20041;-60
2023/07/27 04:41:08;;;;;;;12.10;3.67;;;;;;;8.32;97.69;95973.09;2090190;28;20045;-60
2023/07/27 04:42:09;;;;;;;7.53;4.10;;;;;;;8.40;97.99;95970.25;2090382;28;20057;-60
2023/07/27 04:43:12;;;;;;;7.05;3.75;;;;;;;8.46;97.67;95969.16;2091027;28;20056;-60
2023/07/27 04:44:13;;;;;;;6.72;3.70;;;;;;;8.58;98.65;95971.25;2090118;28;20053;-60
2023/07/27 04:45:14;;;;;;;7.15;3.50;;;;;;;8.64;97.93;95965.03;2090312;28;20049;-60
2023/07/27 04:46:15;;;;;;;4.60;3.17;;;;;;;8.73;97.64;95962.88;2090410;28;20055;-60
2023/07/27 04:47:16;;;;;;;9.73;3.78;;;;;;;8.81;97.35;95967.75;2090195;28;20045;-60
2023/07/27 04:48:17;;;;;;;4.97;3.70;;;;;;;8.81;96.68;95950.47;2091091;28;20049;-60
2023/07/27 04:49:18;;;;;;;7.95;3.45;;;;;;;8.91;95.04;95961.31;2091078;28;20057;-60
2023/07/27 04:50:19;;;;;;;5.32;3.28;;;;;;;9.04;96.13;95962.47;2090947;28;20049;-60
2023/07/27 04:51:21;;;;;;;7.43;3.35;;;;;;;9.09;94.78;95962.28;2090946;28;20049;-60
2023/07/27 04:52:22;;;;;;;8.43;3.08;;;;;;;9.23;95.36;95959.13;2091406;28;20372;-60
2023/07/27 04:53:23;;;;;;;18.25;3.58;;;;;;;9.34;95.45;95964.69;2090185;28;20064;-60
2023/07/27 04:54:24;;;;;;;7.38;3.60;;;;;;;9.41;94.74;95965.25;2090257;28;20048;-60
2023/07/27 04:55:25;;;;;;;5.20;3.28;;;;;;;9.42;93.65;95962.59;2090276;28;20389;-60